Strona główna
METAR-TAF:

METAR-TAF

Lotnisko :

Mataram, Indonezja

Szerokość geograficzna: 08-45-29S, Długość geograficzna: 116-16-35E, wysokość: 97 m

Aktualna obserwacja pogody

Raport powstał 37 minut temu, godzina 07:30 UTC
Wiatr 8 kt od zachód, zmienny między południowy zachód i zachodnio-północny zachód
Temperatura 31°C
Wilgotność 75%
Ciśnienie 1009 hPa
Widzialność: 8000 m
Rozproszone chmury na wysokości 1600 ft

METAR: WADL 220730Z 26008KT 230V300 8000 SCT016 31/26 Q1009 NOSIG

czas: 15:07 (08:07 UTC)

Prognoza

Raport powstał 3 godziny i 7 minut temu, godzina 05:00 UTC
Prognoza ważna od 22 godzina 06 UTC do 23 godzina 06 UTC
Wiatr 12 kt od zachód
Widzialność: 8000 m
Przerywane chmury na wysokości 1600 ft
Prawdopodobieństwo 40% :
Przejściowo
od 22 godzina 07 UTC do 22 godzina 09 UTC
Widzialność: 4000 m
Mało chmury na wysokości 1500 ft, Cumulonimbus.
Przerywane chmury na wysokości 1600 ft
burza, deszcz

TAF: WADL 220500Z 2206/2306 27012KT 8000 BKN016 PROB40 TEMPO 2207/2209 4000 TSRA FEW015CB BKN016

Obserwacja i prognoza pogody dla ponad 4000 lotnisk (raport METAR i TAF).

Dostępne stacje oznaczono żółtymi i czerwonymi punktami na mapie.

Najedź kursorem aby zobaczyć nazwę stacji.

Kliknij aby zobaczyć obserwacje i prognozy pogody.

Aby zmienić mapę: kliknij na zielony przycisk z czarnym krzyżykiem, aby powiększyć; na zielony przycisk z myślnikiem, aby pomniejszyć; na zielone strzałki, aby przejść do map sąsiednich.


METAR-TAF: